sensor_id;sensor_type;location;lat;lon;timestamp;temperature;humidity
67586;SHT31;55785;47.946;20.540;2023-04-24T00:02:07;7.71;72.16
67586;SHT31;55785;47.946;20.540;2023-04-24T00:04:32;7.71;72.21
67586;SHT31;55785;47.946;20.540;2023-04-24T00:06:57;7.68;72.42
67586;SHT31;55785;47.946;20.540;2023-04-24T00:09:23;7.64;72.61
67586;SHT31;55785;47.946;20.540;2023-04-24T00:11:48;7.68;72.65
67586;SHT31;55785;47.946;20.540;2023-04-24T00:14:13;7.62;72.70
67586;SHT31;55785;47.946;20.540;2023-04-24T00:16:39;7.64;72.65
67586;SHT31;55785;47.946;20.540;2023-04-24T00:19:04;7.65;72.64
67586;SHT31;55785;47.946;20.540;2023-04-24T00:21:29;7.71;72.25
67586;SHT31;55785;47.946;20.540;2023-04-24T00:23:55;7.68;72.61
67586;SHT31;55785;47.946;20.540;2023-04-24T00:26:20;7.78;72.27
67586;SHT31;55785;47.946;20.540;2023-04-24T00:28:45;7.83;71.85
67586;SHT31;55785;47.946;20.540;2023-04-24T00:31:11;7.79;72.08
67586;SHT31;55785;47.946;20.540;2023-04-24T00:33:37;7.74;72.12
67586;SHT31;55785;47.946;20.540;2023-04-24T00:36:02;7.77;71.95
67586;SHT31;55785;47.946;20.540;2023-04-24T00:38:28;7.75;72.31
67586;SHT31;55785;47.946;20.540;2023-04-24T00:40:53;7.64;72.48
67586;SHT31;55785;47.946;20.540;2023-04-24T00:43:18;7.59;72.79
67586;SHT31;55785;47.946;20.540;2023-04-24T00:45:44;7.55;72.95
67586;SHT31;55785;47.946;20.540;2023-04-24T00:48:09;7.47;73.49
67586;SHT31;55785;47.946;20.540;2023-04-24T00:50:36;7.43;73.78
67586;SHT31;55785;47.946;20.540;2023-04-24T00:53:01;7.41;73.69
67586;SHT31;55785;47.946;20.540;2023-04-24T00:55:27;7.32;74.17
67586;SHT31;55785;47.946;20.540;2023-04-24T00:57:52;7.34;74.12
67586;SHT31;55785;47.946;20.540;2023-04-24T01:00:18;7.34;74.10
67586;SHT31;55785;47.946;20.540;2023-04-24T01:02:44;7.26;74.25
67586;SHT31;55785;47.946;20.540;2023-04-24T01:05:09;7.16;74.54
67586;SHT31;55785;47.946;20.540;2023-04-24T01:07:35;7.10;74.63
67586;SHT31;55785;47.946;20.540;2023-04-24T01:10:01;7.04;74.89
67586;SHT31;55785;47.946;20.540;2023-04-24T01:12:27;7.03;74.95
67586;SHT31;55785;47.946;20.540;2023-04-24T01:14:52;7.03;75.00
67586;SHT31;55785;47.946;20.540;2023-04-24T01:17:17;7.01;75.12
67586;SHT31;55785;47.946;20.540;2023-04-24T01:19:43;6.93;75.05
67586;SHT31;55785;47.946;20.540;2023-04-24T01:22:11;6.96;75.19
67586;SHT31;55785;47.946;20.540;2023-04-24T01:24:36;7.03;75.05
67586;SHT31;55785;47.946;20.540;2023-04-24T01:27:02;7.09;75.00
67586;SHT31;55785;47.946;20.540;2023-04-24T01:29:27;7.11;75.00
67586;SHT31;55785;47.946;20.540;2023-04-24T01:31:53;7.13;74.89
67586;SHT31;55785;47.946;20.540;2023-04-24T01:34:19;7.06;75.19
67586;SHT31;55785;47.946;20.540;2023-04-24T01:36:45;6.95;75.76
67586;SHT31;55785;47.946;20.540;2023-04-24T01:39:10;6.86;76.02
67586;SHT31;55785;47.946;20.540;2023-04-24T01:41:36;6.83;76.09
67586;SHT31;55785;47.946;20.540;2023-04-24T01:44:02;6.79;76.49
67586;SHT31;55785;47.946;20.540;2023-04-24T01:46:27;6.65;76.80
67586;SHT31;55785;47.946;20.540;2023-04-24T01:48:53;6.64;77.09
67586;SHT31;55785;47.946;20.540;2023-04-24T01:51:18;6.65;76.98
67586;SHT31;55785;47.946;20.540;2023-04-24T01:53:44;6.65;77.00
67586;SHT31;55785;47.946;20.540;2023-04-24T01:56:09;6.68;76.89
67586;SHT31;55785;47.946;20.540;2023-04-24T01:58:35;6.69;76.81
67586;SHT31;55785;47.946;20.540;2023-04-24T02:01:00;6.64;76.88
67586;SHT31;55785;47.946;20.540;2023-04-24T02:03:28;6.58;76.96
67586;SHT31;55785;47.946;20.540;2023-04-24T02:05:54;6.53;77.21
67586;SHT31;55785;47.946;20.540;2023-04-24T02:08:19;6.58;77.13
67586;SHT31;55785;47.946;20.540;2023-04-24T02:10:44;6.58;77.13
67586;SHT31;55785;47.946;20.540;2023-04-24T02:13:10;6.65;77.09
67586;SHT31;55785;47.946;20.540;2023-04-24T02:15:35;6.62;76.95
67586;SHT31;55785;47.946;20.540;2023-04-24T02:18:00;6.67;76.89
67586;SHT31;55785;47.946;20.540;2023-04-24T02:20:26;6.69;77.14
67586;SHT31;55785;47.946;20.540;2023-04-24T02:22:51;6.65;77.04
67586;SHT31;55785;47.946;20.540;2023-04-24T02:25:16;6.67;76.87
67586;SHT31;55785;47.946;20.540;2023-04-24T02:27:42;6.65;76.90
67586;SHT31;55785;47.946;20.540;2023-04-24T02:30:07;6.69;77.04
67586;SHT31;55785;47.946;20.540;2023-04-24T02:32:33;6.75;76.89
67586;SHT31;55785;47.946;20.540;2023-04-24T02:34:58;6.79;76.86
67586;SHT31;55785;47.946;20.540;2023-04-24T02:37:23;6.76;76.83
67586;SHT31;55785;47.946;20.540;2023-04-24T02:39:49;6.82;76.51
67586;SHT31;55785;47.946;20.540;2023-04-24T02:42:14;6.82;76.69
67586;SHT31;55785;47.946;20.540;2023-04-24T02:44:39;6.78;76.88
67586;SHT31;55785;47.946;20.540;2023-04-24T02:47:05;6.76;76.85
67586;SHT31;55785;47.946;20.540;2023-04-24T02:49:30;6.73;76.95
67586;SHT31;55785;47.946;20.540;2023-04-24T02:51:55;6.67;77.22
67586;SHT31;55785;47.946;20.540;2023-04-24T02:54:21;6.64;77.27
67586;SHT31;55785;47.946;20.540;2023-04-24T02:56:46;6.62;77.13
67586;SHT31;55785;47.946;20.540;2023-04-24T02:59:11;6.59;77.29
67586;SHT31;55785;47.946;20.540;2023-04-24T03:01:37;6.53;77.37
67586;SHT31;55785;47.946;20.540;2023-04-24T03:04:02;6.49;77.69
67586;SHT31;55785;47.946;20.540;2023-04-24T03:06:27;6.51;77.57
67586;SHT31;55785;47.946;20.540;2023-04-24T03:08:53;6.49;77.83
67586;SHT31;55785;47.946;20.540;2023-04-24T03:11:18;6.46;77.88
67586;SHT31;55785;47.946;20.540;2023-04-24T03:13:43;6.49;77.97
67586;SHT31;55785;47.946;20.540;2023-04-24T03:16:09;6.53;77.73
67586;SHT31;55785;47.946;20.540;2023-04-24T03:18:34;6.55;77.86
67586;SHT31;55785;47.946;20.540;2023-04-24T03:21:00;6.49;77.83
67586;SHT31;55785;47.946;20.540;2023-04-24T03:23:26;6.45;77.96
67586;SHT31;55785;47.946;20.540;2023-04-24T03:25:51;6.44;77.94
67586;SHT31;55785;47.946;20.540;2023-04-24T03:28:16;6.37;78.31
67586;SHT31;55785;47.946;20.540;2023-04-24T03:30:42;6.32;78.53
67586;SHT31;55785;47.946;20.540;2023-04-24T03:33:07;6.22;78.80
67586;SHT31;55785;47.946;20.540;2023-04-24T03:35:32;6.18;78.97
67586;SHT31;55785;47.946;20.540;2023-04-24T03:37:58;6.17;79.25
67586;SHT31;55785;47.946;20.540;2023-04-24T03:40:23;6.20;79.22
67586;SHT31;55785;47.946;20.540;2023-04-24T03:42:48;6.20;79.44
67586;SHT31;55785;47.946;20.540;2023-04-24T03:45:14;6.18;79.59
67586;SHT31;55785;47.946;20.540;2023-04-24T03:47:39;6.20;79.57
67586;SHT31;55785;47.946;20.540;2023-04-24T03:50:05;6.20;79.28
67586;SHT31;55785;47.946;20.540;2023-04-24T03:52:30;6.17;79.30
67586;SHT31;55785;47.946;20.540;2023-04-24T03:54:55;6.22;79.12
67586;SHT31;55785;47.946;20.540;2023-04-24T03:57:21;6.28;79.45
67586;SHT31;55785;47.946;20.540;2023-04-24T03:59:46;6.32;79.01
67586;SHT31;55785;47.946;20.540;2023-04-24T04:02:11;6.40;79.00
67586;SHT31;55785;47.946;20.540;2023-04-24T04:04:37;6.42;79.03
67586;SHT31;55785;47.946;20.540;2023-04-24T04:07:02;6.53;78.99
67586;SHT31;55785;47.946;20.540;2023-04-24T04:09:28;6.62;79.18
67586;SHT31;55785;47.946;20.540;2023-04-24T04:11:53;6.76;78.66
67586;SHT31;55785;47.946;20.540;2023-04-24T04:14:18;6.86;78.71
67586;SHT31;55785;47.946;20.540;2023-04-24T04:16:44;7.06;78.38
67586;SHT31;55785;47.946;20.540;2023-04-24T04:19:09;7.35;78.82
67586;SHT31;55785;47.946;20.540;2023-04-24T04:21:34;7.62;77.97
67586;SHT31;55785;47.946;20.540;2023-04-24T04:24:00;7.71;77.09
67586;SHT31;55785;47.946;20.540;2023-04-24T04:26:25;7.81;77.65
67586;SHT31;55785;47.946;20.540;2023-04-24T04:28:51;7.96;76.66
67586;SHT31;55785;47.946;20.540;2023-04-24T04:31:17;8.07;76.47
67586;SHT31;55785;47.946;20.540;2023-04-24T04:33:42;8.23;77.33
67586;SHT31;55785;47.946;20.540;2023-04-24T04:36:08;8.34;76.41
67586;SHT31;55785;47.946;20.540;2023-04-24T04:38:34;8.43;76.06
67586;SHT31;55785;47.946;20.540;2023-04-24T04:40:59;8.57;75.88
67586;SHT31;55785;47.946;20.540;2023-04-24T04:43:25;8.67;76.53
67586;SHT31;55785;47.946;20.540;2023-04-24T04:45:51;8.78;76.28
67586;SHT31;55785;47.946;20.540;2023-04-24T04:48:17;8.99;75.99
67586;SHT31;55785;47.946;20.540;2023-04-24T04:50:42;9.20;74.60
67586;SHT31;55785;47.946;20.540;2023-04-24T04:53:08;9.43;74.22
67586;SHT31;55785;47.946;20.540;2023-04-24T04:55:33;9.69;74.36
67586;SHT31;55785;47.946;20.540;2023-04-24T04:57:59;9.80;72.76
67586;SHT31;55785;47.946;20.540;2023-04-24T05:00:24;9.78;73.74
67586;SHT31;55785;47.946;20.540;2023-04-24T05:02:49;9.77;73.88
67586;SHT31;55785;47.946;20.540;2023-04-24T05:05:15;9.70;74.25
67586;SHT31;55785;47.946;20.540;2023-04-24T05:07:40;9.71;74.37
67586;SHT31;55785;47.946;20.540;2023-04-24T05:10:06;9.77;74.98
67586;SHT31;55785;47.946;20.540;2023-04-24T05:12:31;9.80;74.22
67586;SHT31;55785;47.946;20.540;2023-04-24T05:14:56;9.88;75.04
67586;SHT31;55785;47.946;20.540;2023-04-24T05:17:22;10.02;74.89
67586;SHT31;55785;47.946;20.540;2023-04-24T05:19:47;10.18;73.26
67586;SHT31;55785;47.946;20.540;2023-04-24T05:22:12;10.28;74.15
67586;SHT31;55785;47.946;20.540;2023-04-24T05:24:38;10.35;72.81
67586;SHT31;55785;47.946;20.540;2023-04-24T05:27:03;10.38;73.53
67586;SHT31;55785;47.946;20.540;2023-04-24T05:29:29;10.45;73.50
67586;SHT31;55785;47.946;20.540;2023-04-24T05:31:54;10.49;73.09
67586;SHT31;55785;47.946;20.540;2023-04-24T05:34:19;10.48;73.67
67586;SHT31;55785;47.946;20.540;2023-04-24T05:36:45;10.66;74.58
67586;SHT31;55785;47.946;20.540;2023-04-24T05:39:10;10.73;74.76
67586;SHT31;55785;47.946;20.540;2023-04-24T05:41:35;10.85;73.59
67586;SHT31;55785;47.946;20.540;2023-04-24T05:44:01;11.04;72.67
67586;SHT31;55785;47.946;20.540;2023-04-24T05:46:26;11.28;71.90
67586;SHT31;55785;47.946;20.540;2023-04-24T05:48:51;11.56;72.63
67586;SHT31;55785;47.946;20.540;2023-04-24T05:51:17;11.85;69.49
67586;SHT31;55785;47.946;20.540;2023-04-24T05:53:42;12.01;70.59
67586;SHT31;55785;47.946;20.540;2023-04-24T05:56:08;12.10;70.52
67586;SHT31;55785;47.946;20.540;2023-04-24T05:58:33;12.20;71.04
67586;SHT31;55785;47.946;20.540;2023-04-24T06:00:58;12.45;72.96
67586;SHT31;55785;47.946;20.540;2023-04-24T06:03:24;12.68;70.67
67586;SHT31;55785;47.946;20.540;2023-04-24T06:05:50;12.86;71.36
67586;SHT31;55785;47.946;20.540;2023-04-24T06:08:16;12.89;70.39
67586;SHT31;55785;47.946;20.540;2023-04-24T06:10:41;12.89;69.72
67586;SHT31;55785;47.946;20.540;2023-04-24T06:13:06;12.91;69.00
67586;SHT31;55785;47.946;20.540;2023-04-24T06:15:32;12.92;67.83
67586;SHT31;55785;47.946;20.540;2023-04-24T06:17:57;12.96;67.23
67586;SHT31;55785;47.946;20.540;2023-04-24T06:20:23;13.04;66.06
67586;SHT31;55785;47.946;20.540;2023-04-24T06:22:48;13.09;66.18
67586;SHT31;55785;47.946;20.540;2023-04-24T06:25:13;13.20;69.96
67586;SHT31;55785;47.946;20.540;2023-04-24T06:27:39;13.30;68.76
67586;SHT31;55785;47.946;20.540;2023-04-24T06:30:05;13.39;66.21
67586;SHT31;55785;47.946;20.540;2023-04-24T06:32:30;13.47;63.16
67586;SHT31;55785;47.946;20.540;2023-04-24T06:34:55;13.64;67.50
67586;SHT31;55785;47.946;20.540;2023-04-24T06:37:21;13.70;63.34
67586;SHT31;55785;47.946;20.540;2023-04-24T06:39:46;13.61;63.32
67586;SHT31;55785;47.946;20.540;2023-04-24T06:42:12;13.74;64.95
67586;SHT31;55785;47.946;20.540;2023-04-24T06:44:37;13.78;65.08
67586;SHT31;55785;47.946;20.540;2023-04-24T06:47:03;13.68;63.68
67586;SHT31;55785;47.946;20.540;2023-04-24T06:49:28;13.71;65.66
67586;SHT31;55785;47.946;20.540;2023-04-24T06:51:53;13.67;66.52
67586;SHT31;55785;47.946;20.540;2023-04-24T06:54:19;13.70;65.74
67586;SHT31;55785;47.946;20.540;2023-04-24T06:56:44;13.68;62.74
67586;SHT31;55785;47.946;20.540;2023-04-24T06:59:09;13.81;64.27
67586;SHT31;55785;47.946;20.540;2023-04-24T07:01:35;13.75;64.36
67586;SHT31;55785;47.946;20.540;2023-04-24T07:04:00;13.85;64.50
67586;SHT31;55785;47.946;20.540;2023-04-24T07:06:25;13.86;63.47
67586;SHT31;55785;47.946;20.540;2023-04-24T07:08:50;13.75;63.26
67586;SHT31;55785;47.946;20.540;2023-04-24T07:11:16;13.88;66.84
67586;SHT31;55785;47.946;20.540;2023-04-24T07:13:41;13.94;65.07
67586;SHT31;55785;47.946;20.540;2023-04-24T07:16:07;13.94;63.15
67586;SHT31;55785;47.946;20.540;2023-04-24T07:18:33;13.92;64.75
67586;SHT31;55785;47.946;20.540;2023-04-24T07:20:58;13.71;63.98
67586;SHT31;55785;47.946;20.540;2023-04-24T07:23:23;13.72;67.35
67586;SHT31;55785;47.946;20.540;2023-04-24T07:25:49;13.58;66.34
67586;SHT31;55785;47.946;20.540;2023-04-24T07:28:14;13.61;68.11
67586;SHT31;55785;47.946;20.540;2023-04-24T07:30:39;13.60;66.54
67586;SHT31;55785;47.946;20.540;2023-04-24T07:33:05;13.60;65.01
67586;SHT31;55785;47.946;20.540;2023-04-24T07:35:30;13.65;67.99
67586;SHT31;55785;47.946;20.540;2023-04-24T07:37:55;13.74;66.69
67586;SHT31;55785;47.946;20.540;2023-04-24T07:40:21;13.75;65.29
67586;SHT31;55785;47.946;20.540;2023-04-24T07:42:47;13.89;64.89
67586;SHT31;55785;47.946;20.540;2023-04-24T07:45:12;14.01;66.31
67586;SHT31;55785;47.946;20.540;2023-04-24T07:47:37;14.01;64.64
67586;SHT31;55785;47.946;20.540;2023-04-24T07:50:03;14.06;64.25
67586;SHT31;55785;47.946;20.540;2023-04-24T07:52:29;14.01;63.00
67586;SHT31;55785;47.946;20.540;2023-04-24T07:54:54;13.98;64.03
67586;SHT31;55785;47.946;20.540;2023-04-24T07:57:20;13.95;65.01
67586;SHT31;55785;47.946;20.540;2023-04-24T07:59:45;13.86;65.71
67586;SHT31;55785;47.946;20.540;2023-04-24T08:02:10;13.78;66.89
67586;SHT31;55785;47.946;20.540;2023-04-24T08:04:36;13.75;65.58
67586;SHT31;55785;47.946;20.540;2023-04-24T08:07:01;13.71;65.58
67586;SHT31;55785;47.946;20.540;2023-04-24T08:09:26;13.75;67.36
67586;SHT31;55785;47.946;20.540;2023-04-24T08:11:52;13.83;65.11
67586;SHT31;55785;47.946;20.540;2023-04-24T08:14:17;13.71;65.72
67586;SHT31;55785;47.946;20.540;2023-04-24T08:16:42;13.71;65.70
67586;SHT31;55785;47.946;20.540;2023-04-24T08:19:08;13.75;65.05
67586;SHT31;55785;47.946;20.540;2023-04-24T08:21:33;13.71;67.59
67586;SHT31;55785;47.946;20.540;2023-04-24T08:23:58;13.62;68.53
67586;SHT31;55785;47.946;20.540;2023-04-24T08:26:24;13.60;68.25
67586;SHT31;55785;47.946;20.540;2023-04-24T08:28:49;13.55;68.03
67586;SHT31;55785;47.946;20.540;2023-04-24T08:31:15;13.48;70.81
67586;SHT31;55785;47.946;20.540;2023-04-24T08:33:40;13.40;71.56
67586;SHT31;55785;47.946;20.540;2023-04-24T08:36:06;13.43;70.74
67586;SHT31;55785;47.946;20.540;2023-04-24T08:38:31;13.43;70.54
67586;SHT31;55785;47.946;20.540;2023-04-24T08:41:01;13.43;69.32
67586;SHT31;55785;47.946;20.540;2023-04-24T08:43:27;13.50;71.19
67586;SHT31;55785;47.946;20.540;2023-04-24T08:45:55;13.40;70.07
67586;SHT31;55785;47.946;20.540;2023-04-24T08:48:22;13.39;70.16
67586;SHT31;55785;47.946;20.540;2023-04-24T08:50:50;13.36;71.08
67586;SHT31;55785;47.946;20.540;2023-04-24T08:53:16;13.28;71.42
67586;SHT31;55785;47.946;20.540;2023-04-24T08:55:43;13.36;71.94
67586;SHT31;55785;47.946;20.540;2023-04-24T08:58:12;13.33;71.31
67586;SHT31;55785;47.946;20.540;2023-04-24T09:00:39;13.28;71.22
67586;SHT31;55785;47.946;20.540;2023-04-24T09:03:05;13.33;70.36
67586;SHT31;55785;47.946;20.540;2023-04-24T09:05:31;13.27;70.48
67586;SHT31;55785;47.946;20.540;2023-04-24T09:07:59;13.26;71.82
67586;SHT31;55785;47.946;20.540;2023-04-24T09:10:27;13.37;72.02
67586;SHT31;55785;47.946;20.540;2023-04-24T09:12:53;13.44;74.19
67586;SHT31;55785;47.946;20.540;2023-04-24T09:15:19;13.36;74.33
67586;SHT31;55785;47.946;20.540;2023-04-24T09:17:45;13.24;74.45
67586;SHT31;55785;47.946;20.540;2023-04-24T09:20:10;13.23;75.16
67586;SHT31;55785;47.946;20.540;2023-04-24T09:22:36;13.07;75.59
67586;SHT31;55785;47.946;20.540;2023-04-24T09:25:09;13.12;77.22
67586;SHT31;55785;47.946;20.540;2023-04-24T09:27:35;13.06;77.79
67586;SHT31;55785;47.946;20.540;2023-04-24T09:30:01;13.03;77.43
67586;SHT31;55785;47.946;20.540;2023-04-24T09:32:26;12.99;78.86
67586;SHT31;55785;47.946;20.540;2023-04-24T09:35:12;12.91;77.49
67586;SHT31;55785;47.946;20.540;2023-04-24T09:37:40;12.93;78.76
67586;SHT31;55785;47.946;20.540;2023-04-24T09:40:20;12.88;78.86
67586;SHT31;55785;47.946;20.540;2023-04-24T09:42:53;12.81;78.12
67586;SHT31;55785;47.946;20.540;2023-04-24T09:45:19;12.76;78.61
67586;SHT31;55785;47.946;20.540;2023-04-24T09:47:45;12.75;78.24
67586;SHT31;55785;47.946;20.540;2023-04-24T09:50:15;12.73;78.59
67586;SHT31;55785;47.946;20.540;2023-04-24T09:52:55;12.66;78.68
67586;SHT31;55785;47.946;20.540;2023-04-24T09:55:21;12.69;79.23
67586;SHT31;55785;47.946;20.540;2023-04-24T09:57:50;12.69;79.56
67586;SHT31;55785;47.946;20.540;2023-04-24T10:00:30;12.58;79.42
67586;SHT31;55785;47.946;20.540;2023-04-24T10:03:03;12.58;79.98
67586;SHT31;55785;47.946;20.540;2023-04-24T10:05:33;12.62;79.70
67586;SHT31;55785;47.946;20.540;2023-04-24T10:08:03;12.62;80.39
67586;SHT31;55785;47.946;20.540;2023-04-24T10:10:29;12.61;80.62
67586;SHT31;55785;47.946;20.540;2023-04-24T10:12:55;12.61;80.43
67586;SHT31;55785;47.946;20.540;2023-04-24T10:15:21;12.54;80.51
67586;SHT31;55785;47.946;20.540;2023-04-24T10:17:50;12.52;80.28
67586;SHT31;55785;47.946;20.540;2023-04-24T10:20:15;12.51;80.05
67586;SHT31;55785;47.946;20.540;2023-04-24T10:22:41;12.54;80.81
67586;SHT31;55785;47.946;20.540;2023-04-24T10:25:07;12.42;80.27
67586;SHT31;55785;47.946;20.540;2023-04-24T10:27:34;12.38;80.11
67586;SHT31;55785;47.946;20.540;2023-04-24T10:30:00;12.44;81.44
67586;SHT31;55785;47.946;20.540;2023-04-24T10:32:26;12.40;81.28
67586;SHT31;55785;47.946;20.540;2023-04-24T10:34:51;12.33;81.17
67586;SHT31;55785;47.946;20.540;2023-04-24T10:37:17;12.30;81.54
67586;SHT31;55785;47.946;20.540;2023-04-24T10:39:47;12.31;81.80
67586;SHT31;55785;47.946;20.540;2023-04-24T10:42:16;12.28;81.72
67586;SHT31;55785;47.946;20.540;2023-04-24T10:44:41;12.33;82.02
67586;SHT31;55785;47.946;20.540;2023-04-24T10:47:12;12.40;82.42
67586;SHT31;55785;47.946;20.540;2023-04-24T10:49:38;12.49;82.57
67586;SHT31;55785;47.946;20.540;2023-04-24T10:52:04;12.55;82.34
67586;SHT31;55785;47.946;20.540;2023-04-24T10:54:35;12.64;81.90
67586;SHT31;55785;47.946;20.540;2023-04-24T10:57:33;12.71;82.02
67586;SHT31;55785;47.946;20.540;2023-04-24T11:00:20;12.78;82.22
67586;SHT31;55785;47.946;20.540;2023-04-24T11:02:47;12.83;81.99
67586;SHT31;55785;47.946;20.540;2023-04-24T11:05:15;12.93;81.38
67586;SHT31;55785;47.946;20.540;2023-04-24T11:08:15;12.93;82.20
67586;SHT31;55785;47.946;20.540;2023-04-24T11:10:44;13.02;82.14
67586;SHT31;55785;47.946;20.540;2023-04-24T11:13:09;12.96;81.95
67586;SHT31;55785;47.946;20.540;2023-04-24T11:15:35;12.95;82.60
67586;SHT31;55785;47.946;20.540;2023-04-24T11:18:00;12.88;82.40
67586;SHT31;55785;47.946;20.540;2023-04-24T11:20:25;12.83;83.04
67586;SHT31;55785;47.946;20.540;2023-04-24T11:22:53;12.52;82.60
67586;SHT31;55785;47.946;20.540;2023-04-24T11:25:18;12.52;82.11
67586;SHT31;55785;47.946;20.540;2023-04-24T11:27:44;12.40;83.54
67586;SHT31;55785;47.946;20.540;2023-04-24T11:30:10;12.44;83.64
67586;SHT31;55785;47.946;20.540;2023-04-24T11:32:38;12.51;82.90
67586;SHT31;55785;47.946;20.540;2023-04-24T11:35:14;12.46;83.56
67586;SHT31;55785;47.946;20.540;2023-04-24T11:37:41;12.54;83.64
67586;SHT31;55785;47.946;20.540;2023-04-24T11:40:11;12.48;83.35
67586;SHT31;55785;47.946;20.540;2023-04-24T11:42:42;12.54;84.08
67586;SHT31;55785;47.946;20.540;2023-04-24T11:45:15;12.54;83.77
67586;SHT31;55785;47.946;20.540;2023-04-24T11:47:42;12.51;83.99
67586;SHT31;55785;47.946;20.540;2023-04-24T11:50:14;12.59;84.39
67586;SHT31;55785;47.946;20.540;2023-04-24T11:52:41;12.55;83.96
67586;SHT31;55785;47.946;20.540;2023-04-24T11:55:29;12.59;84.64
67586;SHT31;55785;47.946;20.540;2023-04-24T11:57:55;12.54;84.02
67586;SHT31;55785;47.946;20.540;2023-04-24T12:00:23;12.59;84.49
67586;SHT31;55785;47.946;20.540;2023-04-24T12:02:50;12.61;84.47
67586;SHT31;55785;47.946;20.540;2023-04-24T12:05:28;12.52;84.81
67586;SHT31;55785;47.946;20.540;2023-04-24T12:07:54;12.51;84.70
67586;SHT31;55785;47.946;20.540;2023-04-24T12:10:24;12.49;85.15
67586;SHT31;55785;47.946;20.540;2023-04-24T12:12:50;12.49;85.08
67586;SHT31;55785;47.946;20.540;2023-04-24T12:15:16;12.48;84.94
67586;SHT31;55785;47.946;20.540;2023-04-24T12:17:42;12.51;85.36
67586;SHT31;55785;47.946;20.540;2023-04-24T12:20:09;12.55;85.29
67586;SHT31;55785;47.946;20.540;2023-04-24T12:22:54;12.62;85.45
67586;SHT31;55785;47.946;20.540;2023-04-24T12:25:23;12.62;85.16
67586;SHT31;55785;47.946;20.540;2023-04-24T12:28:09;12.64;85.38
67586;SHT31;55785;47.946;20.540;2023-04-24T12:30:48;12.61;86.20
67586;SHT31;55785;47.946;20.540;2023-04-24T12:33:20;12.64;85.83
67586;SHT31;55785;47.946;20.540;2023-04-24T12:35:47;12.61;85.25
67586;SHT31;55785;47.946;20.540;2023-04-24T12:38:13;12.69;85.97
67586;SHT31;55785;47.946;20.540;2023-04-24T12:40:43;12.76;85.44
67586;SHT31;55785;47.946;20.540;2023-04-24T12:43:16;12.73;85.52
67586;SHT31;55785;47.946;20.540;2023-04-24T12:45:41;12.78;85.78
67586;SHT31;55785;47.946;20.540;2023-04-24T12:48:07;12.56;86.31
67586;SHT31;55785;47.946;20.540;2023-04-24T12:50:32;12.62;86.40
67586;SHT31;55785;47.946;20.540;2023-04-24T12:52:57;12.64;85.90
67586;SHT31;55785;47.946;20.540;2023-04-24T12:55:23;12.69;85.62
67586;SHT31;55785;47.946;20.540;2023-04-24T12:57:48;12.89;85.99
67586;SHT31;55785;47.946;20.540;2023-04-24T13:00:14;12.93;85.12
67586;SHT31;55785;47.946;20.540;2023-04-24T13:02:39;13.00;85.98
67586;SHT31;55785;47.946;20.540;2023-04-24T13:05:05;13.07;86.14
67586;SHT31;55785;47.946;20.540;2023-04-24T13:07:31;13.17;86.09
67586;SHT31;55785;47.946;20.540;2023-04-24T13:09:56;12.91;85.04
67586;SHT31;55785;47.946;20.540;2023-04-24T13:12:22;13.04;85.51
67586;SHT31;55785;47.946;20.540;2023-04-24T13:14:47;13.16;85.86
67586;SHT31;55785;47.946;20.540;2023-04-24T13:17:12;13.16;85.85
67586;SHT31;55785;47.946;20.540;2023-04-24T13:19:42;13.12;85.41
67586;SHT31;55785;47.946;20.540;2023-04-24T13:22:10;13.24;86.36
67586;SHT31;55785;47.946;20.540;2023-04-24T13:24:36;13.16;85.51
67586;SHT31;55785;47.946;20.540;2023-04-24T13:27:01;13.27;86.44
67586;SHT31;55785;47.946;20.540;2023-04-24T13:29:27;13.24;85.47
67586;SHT31;55785;47.946;20.540;2023-04-24T13:31:53;13.22;85.73
67586;SHT31;55785;47.946;20.540;2023-04-24T13:34:19;13.20;85.57
67586;SHT31;55785;47.946;20.540;2023-04-24T13:36:44;13.30;85.57
67586;SHT31;55785;47.946;20.540;2023-04-24T13:39:09;13.30;84.97
67586;SHT31;55785;47.946;20.540;2023-04-24T13:41:35;13.40;85.49
67586;SHT31;55785;47.946;20.540;2023-04-24T13:44:00;13.40;85.29
67586;SHT31;55785;47.946;20.540;2023-04-24T13:46:26;13.37;85.27
67586;SHT31;55785;47.946;20.540;2023-04-24T13:48:51;13.40;85.14
67586;SHT31;55785;47.946;20.540;2023-04-24T13:51:16;13.41;85.55
67586;SHT31;55785;47.946;20.540;2023-04-24T13:53:42;13.46;85.13
67586;SHT31;55785;47.946;20.540;2023-04-24T13:56:07;13.46;85.28
67586;SHT31;55785;47.946;20.540;2023-04-24T13:58:32;13.46;85.29
67586;SHT31;55785;47.946;20.540;2023-04-24T14:00:58;13.50;85.20
67586;SHT31;55785;47.946;20.540;2023-04-24T14:03:23;13.51;84.91
67586;SHT31;55785;47.946;20.540;2023-04-24T14:05:49;13.54;84.98
67586;SHT31;55785;47.946;20.540;2023-04-24T14:08:14;13.50;85.60
67586;SHT31;55785;47.946;20.540;2023-04-24T14:10:39;13.46;85.36
67586;SHT31;55785;47.946;20.540;2023-04-24T14:13:05;13.43;85.82
67586;SHT31;55785;47.946;20.540;2023-04-24T14:15:30;13.30;85.88
67586;SHT31;55785;47.946;20.540;2023-04-24T14:17:55;13.40;85.71
67586;SHT31;55785;47.946;20.540;2023-04-24T14:20:22;13.48;85.21
67586;SHT31;55785;47.946;20.540;2023-04-24T14:22:47;13.46;85.42
67586;SHT31;55785;47.946;20.540;2023-04-24T14:25:13;13.47;85.54
67586;SHT31;55785;47.946;20.540;2023-04-24T14:27:38;13.40;85.47
67586;SHT31;55785;47.946;20.540;2023-04-24T14:30:04;13.44;85.40
67586;SHT31;55785;47.946;20.540;2023-04-24T14:32:29;13.48;85.27
67586;SHT31;55785;47.946;20.540;2023-04-24T14:34:55;13.44;85.22
67586;SHT31;55785;47.946;20.540;2023-04-24T14:37:20;13.40;85.52
67586;SHT31;55785;47.946;20.540;2023-04-24T14:39:45;13.40;85.46
67586;SHT31;55785;47.946;20.540;2023-04-24T14:42:11;13.34;85.71
67586;SHT31;55785;47.946;20.540;2023-04-24T14:44:36;13.31;85.93
67586;SHT31;55785;47.946;20.540;2023-04-24T14:47:02;13.31;86.19
67586;SHT31;55785;47.946;20.540;2023-04-24T14:49:27;13.30;86.06
67586;SHT31;55785;47.946;20.540;2023-04-24T14:51:52;13.36;85.97
67586;SHT31;55785;47.946;20.540;2023-04-24T14:54:18;13.36;85.97
67586;SHT31;55785;47.946;20.540;2023-04-24T14:56:43;13.27;86.34
67586;SHT31;55785;47.946;20.540;2023-04-24T14:59:08;13.30;86.40
67586;SHT31;55785;47.946;20.540;2023-04-24T15:01:34;13.28;86.75
67586;SHT31;55785;47.946;20.540;2023-04-24T15:03:59;13.26;86.82
67586;SHT31;55785;47.946;20.540;2023-04-24T15:06:24;13.27;86.91
67586;SHT31;55785;47.946;20.540;2023-04-24T15:08:50;13.22;87.19
67586;SHT31;55785;47.946;20.540;2023-04-24T15:11:15;13.16;87.25
67586;SHT31;55785;47.946;20.540;2023-04-24T15:13:41;13.07;87.80
67586;SHT31;55785;47.946;20.540;2023-04-24T15:16:06;13.12;87.84